<?xml version="1.0" encoding="UTF-8" standalone="no" ?>
<gpx version="1.1" creator="Visorando" xmlns:xsi="http://www.w3.org/2001/XMLSchema-instance" xmlns="http://www.topografix.com/GPX/1/1" xsi:schemaLocation="http://www.topografix.com/GPX/1/1 http://www.topografix.com/GPX/1/1/gpx.xsd">
<metadata>
  <name>Bouquetins - Mont Chalancha - La Colmiane</name>
  <link href="https://www.visorando.com/randonnee-98485796/">
    <text>https://www.visorando.com/randonnee-98485796/</text>
  </link>
</metadata><wpt lat="44.071365" lon="7.221062">
  <ele>1501</ele>
  <time>2026-05-29T18:48:03.000Z</time>
  <name>Point de passage 1</name>
  <type>GENERIC</type>
</wpt><wpt lat="44.071347" lon="7.221108">
  <ele>1501</ele>
  <time>2026-05-30T02:10:50.000Z</time>
  <name>Point de passage 2</name>
  <type>GENERIC</type>
</wpt><trk>
  <name>Bouquetins - Mont Chalancha - La Colmiane</name>
  <trkseg>
    <trkpt lat="44.071365" lon="7.221062">
      <ele>1501</ele>
      <time>2026-05-29T18:48:03.000Z</time>
    </trkpt>
    <trkpt lat="44.071485" lon="7.220838">
      <ele>1498</ele>
      <time>2026-05-29T18:48:26.000Z</time>
    </trkpt>
    <trkpt lat="44.07162" lon="7.220812">
      <ele>1499</ele>
      <time>2026-05-29T18:48:52.000Z</time>
    </trkpt>
    <trkpt lat="44.071771" lon="7.220625">
      <ele>1496</ele>
      <time>2026-05-29T18:49:15.000Z</time>
    </trkpt>
    <trkpt lat="44.071363" lon="7.220683">
      <ele>1498</ele>
      <time>2026-05-29T18:50:23.000Z</time>
    </trkpt>
    <trkpt lat="44.071261" lon="7.220716">
      <ele>1498</ele>
      <time>2026-05-29T18:50:35.000Z</time>
    </trkpt>
    <trkpt lat="44.071134" lon="7.220828">
      <ele>1500</ele>
      <time>2026-05-29T18:51:13.000Z</time>
    </trkpt>
    <trkpt lat="44.071027" lon="7.220583">
      <ele>1501</ele>
      <time>2026-05-29T18:51:47.000Z</time>
    </trkpt>
    <trkpt lat="44.070963" lon="7.21998">
      <ele>1502</ele>
      <time>2026-05-29T18:52:47.000Z</time>
    </trkpt>
    <trkpt lat="44.070898" lon="7.219747">
      <ele>1503</ele>
      <time>2026-05-29T18:53:18.000Z</time>
    </trkpt>
    <trkpt lat="44.070668" lon="7.219237">
      <ele>1505</ele>
      <time>2026-05-29T18:54:28.000Z</time>
    </trkpt>
    <trkpt lat="44.070162" lon="7.218438">
      <ele>1506</ele>
      <time>2026-05-29T18:56:06.000Z</time>
    </trkpt>
    <trkpt lat="44.069783" lon="7.218134">
      <ele>1509</ele>
      <time>2026-05-29T18:57:27.000Z</time>
    </trkpt>
    <trkpt lat="44.068978" lon="7.217867">
      <ele>1510</ele>
      <time>2026-05-29T18:59:12.000Z</time>
    </trkpt>
    <trkpt lat="44.068282" lon="7.217766">
      <ele>1510</ele>
      <time>2026-05-29T19:00:32.000Z</time>
    </trkpt>
    <trkpt lat="44.067748" lon="7.217752">
      <ele>1509</ele>
      <time>2026-05-29T19:01:33.000Z</time>
    </trkpt>
    <trkpt lat="44.066468" lon="7.218361">
      <ele>1504</ele>
      <time>2026-05-29T19:04:08.000Z</time>
    </trkpt>
    <trkpt lat="44.066089" lon="7.218514">
      <ele>1503</ele>
      <time>2026-05-29T19:04:53.000Z</time>
    </trkpt>
    <trkpt lat="44.065932" lon="7.218503">
      <ele>1503</ele>
      <time>2026-05-29T19:05:11.000Z</time>
    </trkpt>
    <trkpt lat="44.065916" lon="7.218451">
      <ele>1501</ele>
      <time>2026-05-29T19:05:16.000Z</time>
    </trkpt>
    <trkpt lat="44.065982" lon="7.217861">
      <ele>1490</ele>
      <time>2026-05-29T19:06:05.000Z</time>
    </trkpt>
    <trkpt lat="44.065943" lon="7.21729">
      <ele>1487</ele>
      <time>2026-05-29T19:06:52.000Z</time>
    </trkpt>
    <trkpt lat="44.066042" lon="7.216532">
      <ele>1486</ele>
      <time>2026-05-29T19:07:55.000Z</time>
    </trkpt>
    <trkpt lat="44.066044" lon="7.216193">
      <ele>1485</ele>
      <time>2026-05-29T19:08:23.000Z</time>
    </trkpt>
    <trkpt lat="44.066036" lon="7.215981">
      <ele>1484</ele>
      <time>2026-05-29T19:08:40.000Z</time>
    </trkpt>
    <trkpt lat="44.065903" lon="7.215473">
      <ele>1487</ele>
      <time>2026-05-29T19:09:55.000Z</time>
    </trkpt>
    <trkpt lat="44.065872" lon="7.215397">
      <ele>1487</ele>
      <time>2026-05-29T19:10:02.000Z</time>
    </trkpt>
    <trkpt lat="44.06575" lon="7.215077">
      <ele>1489</ele>
      <time>2026-05-29T19:10:52.000Z</time>
    </trkpt>
    <trkpt lat="44.065335" lon="7.214449">
      <ele>1504</ele>
      <time>2026-05-29T19:14:36.000Z</time>
    </trkpt>
    <trkpt lat="44.065068" lon="7.213914">
      <ele>1514</ele>
      <time>2026-05-29T19:17:12.000Z</time>
    </trkpt>
    <trkpt lat="44.064644" lon="7.213217">
      <ele>1522</ele>
      <time>2026-05-29T19:19:49.000Z</time>
    </trkpt>
    <trkpt lat="44.064435" lon="7.212925">
      <ele>1531</ele>
      <time>2026-05-29T19:21:55.000Z</time>
    </trkpt>
    <trkpt lat="44.064256" lon="7.212774">
      <ele>1533</ele>
      <time>2026-05-29T19:22:40.000Z</time>
    </trkpt>
    <trkpt lat="44.064103" lon="7.212748">
      <ele>1537</ele>
      <time>2026-05-29T19:23:39.000Z</time>
    </trkpt>
    <trkpt lat="44.063845" lon="7.212743">
      <ele>1541</ele>
      <time>2026-05-29T19:24:50.000Z</time>
    </trkpt>
    <trkpt lat="44.063377" lon="7.212992">
      <ele>1553</ele>
      <time>2026-05-29T19:27:51.000Z</time>
    </trkpt>
    <trkpt lat="44.063139" lon="7.213022">
      <ele>1556</ele>
      <time>2026-05-29T19:28:49.000Z</time>
    </trkpt>
    <trkpt lat="44.061873" lon="7.212734">
      <ele>1577</ele>
      <time>2026-05-29T19:34:52.000Z</time>
    </trkpt>
    <trkpt lat="44.061342" lon="7.212521">
      <ele>1585</ele>
      <time>2026-05-29T19:37:18.000Z</time>
    </trkpt>
    <trkpt lat="44.061086" lon="7.212502">
      <ele>1590</ele>
      <time>2026-05-29T19:38:39.000Z</time>
    </trkpt>
    <trkpt lat="44.060098" lon="7.212698">
      <ele>1603</ele>
      <time>2026-05-29T19:42:47.000Z</time>
    </trkpt>
    <trkpt lat="44.059749" lon="7.212919">
      <ele>1608</ele>
      <time>2026-05-29T19:44:22.000Z</time>
    </trkpt>
    <trkpt lat="44.059373" lon="7.213324">
      <ele>1616</ele>
      <time>2026-05-29T19:46:39.000Z</time>
    </trkpt>
    <trkpt lat="44.059224" lon="7.213573">
      <ele>1622</ele>
      <time>2026-05-29T19:48:07.000Z</time>
    </trkpt>
    <trkpt lat="44.059094" lon="7.213632">
      <ele>1620</ele>
      <time>2026-05-29T19:48:23.000Z</time>
    </trkpt>
    <trkpt lat="44.058959" lon="7.213794">
      <ele>1622</ele>
      <time>2026-05-29T19:49:04.000Z</time>
    </trkpt>
    <trkpt lat="44.058717" lon="7.21391">
      <ele>1622</ele>
      <time>2026-05-29T19:49:33.000Z</time>
    </trkpt>
    <trkpt lat="44.058637" lon="7.213948">
      <ele>1622</ele>
      <time>2026-05-29T19:49:43.000Z</time>
    </trkpt>
    <trkpt lat="44.058472" lon="7.214122">
      <ele>1630</ele>
      <time>2026-05-29T19:51:29.000Z</time>
    </trkpt>
    <trkpt lat="44.058248" lon="7.214153">
      <ele>1629</ele>
      <time>2026-05-29T19:51:55.000Z</time>
    </trkpt>
    <trkpt lat="44.057947" lon="7.214274">
      <ele>1636</ele>
      <time>2026-05-29T19:53:43.000Z</time>
    </trkpt>
    <trkpt lat="44.05783" lon="7.214362">
      <ele>1641</ele>
      <time>2026-05-29T19:54:50.000Z</time>
    </trkpt>
    <trkpt lat="44.05758" lon="7.214712">
      <ele>1662</ele>
      <time>2026-05-29T19:59:07.000Z</time>
    </trkpt>
    <trkpt lat="44.057429" lon="7.214706">
      <ele>1664</ele>
      <time>2026-05-29T19:59:45.000Z</time>
    </trkpt>
    <trkpt lat="44.057045" lon="7.214585">
      <ele>1676</ele>
      <time>2026-05-29T20:02:34.000Z</time>
    </trkpt>
    <trkpt lat="44.056798" lon="7.214357">
      <ele>1678</ele>
      <time>2026-05-29T20:03:29.000Z</time>
    </trkpt>
    <trkpt lat="44.056492" lon="7.214144">
      <ele>1689</ele>
      <time>2026-05-29T20:06:01.000Z</time>
    </trkpt>
    <trkpt lat="44.056096" lon="7.213775">
      <ele>1697</ele>
      <time>2026-05-29T20:08:18.000Z</time>
    </trkpt>
    <trkpt lat="44.055764" lon="7.213708">
      <ele>1705</ele>
      <time>2026-05-29T20:10:19.000Z</time>
    </trkpt>
    <trkpt lat="44.055605" lon="7.213604">
      <ele>1708</ele>
      <time>2026-05-29T20:11:10.000Z</time>
    </trkpt>
    <trkpt lat="44.055479" lon="7.213414">
      <ele>1708</ele>
      <time>2026-05-29T20:11:31.000Z</time>
    </trkpt>
    <trkpt lat="44.055317" lon="7.212902">
      <ele>1701</ele>
      <time>2026-05-29T20:12:17.000Z</time>
    </trkpt>
    <trkpt lat="44.055212" lon="7.212735">
      <ele>1701</ele>
      <time>2026-05-29T20:12:35.000Z</time>
    </trkpt>
    <trkpt lat="44.055011" lon="7.212598">
      <ele>1707</ele>
      <time>2026-05-29T20:14:02.000Z</time>
    </trkpt>
    <trkpt lat="44.054295" lon="7.212642">
      <ele>1715</ele>
      <time>2026-05-29T20:16:46.000Z</time>
    </trkpt>
    <trkpt lat="44.053888" lon="7.212745">
      <ele>1719</ele>
      <time>2026-05-29T20:18:15.000Z</time>
    </trkpt>
    <trkpt lat="44.053508" lon="7.212692">
      <ele>1714</ele>
      <time>2026-05-29T20:18:59.000Z</time>
    </trkpt>
    <trkpt lat="44.052914" lon="7.212821">
      <ele>1709</ele>
      <time>2026-05-29T20:20:08.000Z</time>
    </trkpt>
    <trkpt lat="44.05282" lon="7.21279">
      <ele>1707</ele>
      <time>2026-05-29T20:20:19.000Z</time>
    </trkpt>
    <trkpt lat="44.052892" lon="7.212947">
      <ele>1708</ele>
      <time>2026-05-29T20:20:45.000Z</time>
    </trkpt>
    <trkpt lat="44.05282" lon="7.21279">
      <ele>1707</ele>
      <time>2026-05-29T20:21:00.000Z</time>
    </trkpt>
    <trkpt lat="44.052725" lon="7.212713">
      <ele>1705</ele>
      <time>2026-05-29T20:21:13.000Z</time>
    </trkpt>
    <trkpt lat="44.052493" lon="7.212307">
      <ele>1704</ele>
      <time>2026-05-29T20:21:56.000Z</time>
    </trkpt>
    <trkpt lat="44.05225" lon="7.212032">
      <ele>1706</ele>
      <time>2026-05-29T20:22:52.000Z</time>
    </trkpt>
    <trkpt lat="44.052113" lon="7.211813">
      <ele>1708</ele>
      <time>2026-05-29T20:23:36.000Z</time>
    </trkpt>
    <trkpt lat="44.051864" lon="7.211602">
      <ele>1714</ele>
      <time>2026-05-29T20:25:11.000Z</time>
    </trkpt>
    <trkpt lat="44.051677" lon="7.211389">
      <ele>1721</ele>
      <time>2026-05-29T20:26:51.000Z</time>
    </trkpt>
    <trkpt lat="44.051371" lon="7.211292">
      <ele>1731</ele>
      <time>2026-05-29T20:29:10.000Z</time>
    </trkpt>
    <trkpt lat="44.051442" lon="7.211093">
      <ele>1733</ele>
      <time>2026-05-29T20:29:49.000Z</time>
    </trkpt>
    <trkpt lat="44.051444" lon="7.211007">
      <ele>1734</ele>
      <time>2026-05-29T20:30:06.000Z</time>
    </trkpt>
    <trkpt lat="44.0511" lon="7.211027">
      <ele>1737</ele>
      <time>2026-05-29T20:31:16.000Z</time>
    </trkpt>
    <trkpt lat="44.051188" lon="7.210847">
      <ele>1740</ele>
      <time>2026-05-29T20:32:05.000Z</time>
    </trkpt>
    <trkpt lat="44.051184" lon="7.210743">
      <ele>1742</ele>
      <time>2026-05-29T20:32:34.000Z</time>
    </trkpt>
    <trkpt lat="44.051083" lon="7.210379">
      <ele>1750</ele>
      <time>2026-05-29T20:34:28.000Z</time>
    </trkpt>
    <trkpt lat="44.051182" lon="7.210052">
      <ele>1754</ele>
      <time>2026-05-29T20:35:38.000Z</time>
    </trkpt>
    <trkpt lat="44.051203" lon="7.209626">
      <ele>1761</ele>
      <time>2026-05-29T20:37:25.000Z</time>
    </trkpt>
    <trkpt lat="44.051179" lon="7.2094">
      <ele>1764</ele>
      <time>2026-05-29T20:38:15.000Z</time>
    </trkpt>
    <trkpt lat="44.051202" lon="7.209266">
      <ele>1764</ele>
      <time>2026-05-29T20:38:26.000Z</time>
    </trkpt>
    <trkpt lat="44.05129" lon="7.209089">
      <ele>1761</ele>
      <time>2026-05-29T20:38:44.000Z</time>
    </trkpt>
    <trkpt lat="44.051319" lon="7.208807">
      <ele>1763</ele>
      <time>2026-05-29T20:39:28.000Z</time>
    </trkpt>
    <trkpt lat="44.051472" lon="7.208432">
      <ele>1760</ele>
      <time>2026-05-29T20:40:03.000Z</time>
    </trkpt>
    <trkpt lat="44.05159" lon="7.208234">
      <ele>1756</ele>
      <time>2026-05-29T20:40:24.000Z</time>
    </trkpt>
    <trkpt lat="44.051638" lon="7.207965">
      <ele>1760</ele>
      <time>2026-05-29T20:41:28.000Z</time>
    </trkpt>
    <trkpt lat="44.051612" lon="7.20766">
      <ele>1765</ele>
      <time>2026-05-29T20:42:45.000Z</time>
    </trkpt>
    <trkpt lat="44.051477" lon="7.20734">
      <ele>1775</ele>
      <time>2026-05-29T20:44:58.000Z</time>
    </trkpt>
    <trkpt lat="44.051051" lon="7.20671">
      <ele>1786</ele>
      <time>2026-05-29T20:48:02.000Z</time>
    </trkpt>
    <trkpt lat="44.050865" lon="7.206519">
      <ele>1788</ele>
      <time>2026-05-29T20:48:49.000Z</time>
    </trkpt>
    <trkpt lat="44.050364" lon="7.206147">
      <ele>1796</ele>
      <time>2026-05-29T20:51:16.000Z</time>
    </trkpt>
    <trkpt lat="44.049878" lon="7.205621">
      <ele>1797</ele>
      <time>2026-05-29T20:52:37.000Z</time>
    </trkpt>
    <trkpt lat="44.048702" lon="7.203409">
      <ele>1831</ele>
      <time>2026-05-29T21:02:13.000Z</time>
    </trkpt>
    <trkpt lat="44.04836" lon="7.20251">
      <ele>1834</ele>
      <time>2026-05-29T21:04:08.000Z</time>
    </trkpt>
    <trkpt lat="44.048206" lon="7.202258">
      <ele>1836</ele>
      <time>2026-05-29T21:04:56.000Z</time>
    </trkpt>
    <trkpt lat="44.047807" lon="7.201957">
      <ele>1855</ele>
      <time>2026-05-29T21:09:03.000Z</time>
    </trkpt>
    <trkpt lat="44.047782" lon="7.201771">
      <ele>1854</ele>
      <time>2026-05-29T21:09:19.000Z</time>
    </trkpt>
    <trkpt lat="44.047713" lon="7.201766">
      <ele>1859</ele>
      <time>2026-05-29T21:10:18.000Z</time>
    </trkpt>
    <trkpt lat="44.047678" lon="7.202002">
      <ele>1865</ele>
      <time>2026-05-29T21:11:40.000Z</time>
    </trkpt>
    <trkpt lat="44.047603" lon="7.201962">
      <ele>1869</ele>
      <time>2026-05-29T21:12:30.000Z</time>
    </trkpt>
    <trkpt lat="44.047527" lon="7.201738">
      <ele>1875</ele>
      <time>2026-05-29T21:13:52.000Z</time>
    </trkpt>
    <trkpt lat="44.047398" lon="7.20197">
      <ele>1886</ele>
      <time>2026-05-29T21:16:09.000Z</time>
    </trkpt>
    <trkpt lat="44.047411" lon="7.202083">
      <ele>1887</ele>
      <time>2026-05-29T21:16:29.000Z</time>
    </trkpt>
    <trkpt lat="44.047368" lon="7.202156">
      <ele>1890</ele>
      <time>2026-05-29T21:17:08.000Z</time>
    </trkpt>
    <trkpt lat="44.047269" lon="7.201981">
      <ele>1893</ele>
      <time>2026-05-29T21:17:57.000Z</time>
    </trkpt>
    <trkpt lat="44.047219" lon="7.20146">
      <ele>1898</ele>
      <time>2026-05-29T21:19:32.000Z</time>
    </trkpt>
    <trkpt lat="44.047149" lon="7.20148">
      <ele>1901</ele>
      <time>2026-05-29T21:20:11.000Z</time>
    </trkpt>
    <trkpt lat="44.046958" lon="7.201731">
      <ele>1905</ele>
      <time>2026-05-29T21:21:22.000Z</time>
    </trkpt>
    <trkpt lat="44.046921" lon="7.201833">
      <ele>1908</ele>
      <time>2026-05-29T21:22:02.000Z</time>
    </trkpt>
    <trkpt lat="44.046914" lon="7.201923">
      <ele>1909</ele>
      <time>2026-05-29T21:22:20.000Z</time>
    </trkpt>
    <trkpt lat="44.046946" lon="7.202016">
      <ele>1910</ele>
      <time>2026-05-29T21:22:39.000Z</time>
    </trkpt>
    <trkpt lat="44.046906" lon="7.202065">
      <ele>1913</ele>
      <time>2026-05-29T21:23:16.000Z</time>
    </trkpt>
    <trkpt lat="44.046896" lon="7.202148">
      <ele>1917</ele>
      <time>2026-05-29T21:24:04.000Z</time>
    </trkpt>
    <trkpt lat="44.046724" lon="7.202214">
      <ele>1922</ele>
      <time>2026-05-29T21:25:16.000Z</time>
    </trkpt>
    <trkpt lat="44.046718" lon="7.202259">
      <ele>1924</ele>
      <time>2026-05-29T21:25:40.000Z</time>
    </trkpt>
    <trkpt lat="44.046431" lon="7.202516">
      <ele>1933</ele>
      <time>2026-05-29T21:27:52.000Z</time>
    </trkpt>
    <trkpt lat="44.046451" lon="7.202567">
      <ele>1936</ele>
      <time>2026-05-29T21:28:28.000Z</time>
    </trkpt>
    <trkpt lat="44.046638" lon="7.202644">
      <ele>1941</ele>
      <time>2026-05-29T21:29:42.000Z</time>
    </trkpt>
    <trkpt lat="44.046707" lon="7.202765">
      <ele>1945</ele>
      <time>2026-05-29T21:30:36.000Z</time>
    </trkpt>
    <trkpt lat="44.046551" lon="7.202956">
      <ele>1953</ele>
      <time>2026-05-29T21:32:22.000Z</time>
    </trkpt>
    <trkpt lat="44.046587" lon="7.203034">
      <ele>1955</ele>
      <time>2026-05-29T21:32:50.000Z</time>
    </trkpt>
    <trkpt lat="44.046561" lon="7.203189">
      <ele>1962</ele>
      <time>2026-05-29T21:34:15.000Z</time>
    </trkpt>
    <trkpt lat="44.046482" lon="7.203391">
      <ele>1968</ele>
      <time>2026-05-29T21:35:36.000Z</time>
    </trkpt>
    <trkpt lat="44.04659" lon="7.203583">
      <ele>1976</ele>
      <time>2026-05-29T21:37:18.000Z</time>
    </trkpt>
    <trkpt lat="44.046474" lon="7.203819">
      <ele>1985</ele>
      <time>2026-05-29T21:39:14.000Z</time>
    </trkpt>
    <trkpt lat="44.046466" lon="7.20396">
      <ele>1991</ele>
      <time>2026-05-29T21:40:27.000Z</time>
    </trkpt>
    <trkpt lat="44.046483" lon="7.204178">
      <ele>1999</ele>
      <time>2026-05-29T21:42:07.000Z</time>
    </trkpt>
    <trkpt lat="44.046595" lon="7.204605">
      <ele>2017</ele>
      <time>2026-05-29T21:45:50.000Z</time>
    </trkpt>
    <trkpt lat="44.046639" lon="7.204898">
      <ele>2028</ele>
      <time>2026-05-29T21:48:08.000Z</time>
    </trkpt>
    <trkpt lat="44.046742" lon="7.205092">
      <ele>2040</ele>
      <time>2026-05-29T21:50:31.000Z</time>
    </trkpt>
    <trkpt lat="44.0467" lon="7.205202">
      <ele>2042</ele>
      <time>2026-05-29T21:51:02.000Z</time>
    </trkpt>
    <trkpt lat="44.046736" lon="7.205223">
      <ele>2044</ele>
      <time>2026-05-29T21:51:27.000Z</time>
    </trkpt>
    <trkpt lat="44.046741" lon="7.205491">
      <ele>2050</ele>
      <time>2026-05-29T21:52:51.000Z</time>
    </trkpt>
    <trkpt lat="44.046789" lon="7.205559">
      <ele>2053</ele>
      <time>2026-05-29T21:53:30.000Z</time>
    </trkpt>
    <trkpt lat="44.046789" lon="7.205618">
      <ele>2054</ele>
      <time>2026-05-29T21:53:45.000Z</time>
    </trkpt>
    <trkpt lat="44.046699" lon="7.206276">
      <ele>2068</ele>
      <time>2026-05-29T21:57:04.000Z</time>
    </trkpt>
    <trkpt lat="44.046779" lon="7.206347">
      <ele>2069</ele>
      <time>2026-05-29T21:57:25.000Z</time>
    </trkpt>
    <trkpt lat="44.046685" lon="7.206681">
      <ele>2077</ele>
      <time>2026-05-29T21:59:17.000Z</time>
    </trkpt>
    <trkpt lat="44.046759" lon="7.206958">
      <ele>2082</ele>
      <time>2026-05-29T22:00:33.000Z</time>
    </trkpt>
    <trkpt lat="44.046685" lon="7.206681">
      <ele>2077</ele>
      <time>2026-05-29T22:00:57.000Z</time>
    </trkpt>
    <trkpt lat="44.046643" lon="7.206633">
      <ele>2077</ele>
      <time>2026-05-29T22:01:03.000Z</time>
    </trkpt>
    <trkpt lat="44.046575" lon="7.206643">
      <ele>2077</ele>
      <time>2026-05-29T22:01:11.000Z</time>
    </trkpt>
    <trkpt lat="44.046103" lon="7.206929">
      <ele>2076</ele>
      <time>2026-05-29T22:02:10.000Z</time>
    </trkpt>
    <trkpt lat="44.04573" lon="7.207044">
      <ele>2074</ele>
      <time>2026-05-29T22:02:54.000Z</time>
    </trkpt>
    <trkpt lat="44.045533" lon="7.207032">
      <ele>2072</ele>
      <time>2026-05-29T22:03:17.000Z</time>
    </trkpt>
    <trkpt lat="44.044982" lon="7.207308">
      <ele>2070</ele>
      <time>2026-05-29T22:04:24.000Z</time>
    </trkpt>
    <trkpt lat="44.044655" lon="7.20739">
      <ele>2070</ele>
      <time>2026-05-29T22:05:02.000Z</time>
    </trkpt>
    <trkpt lat="44.044359" lon="7.207519">
      <ele>2068</ele>
      <time>2026-05-29T22:05:38.000Z</time>
    </trkpt>
    <trkpt lat="44.043782" lon="7.207673">
      <ele>2062</ele>
      <time>2026-05-29T22:06:45.000Z</time>
    </trkpt>
    <trkpt lat="44.04267" lon="7.207721">
      <ele>2060</ele>
      <time>2026-05-29T22:08:52.000Z</time>
    </trkpt>
    <trkpt lat="44.042039" lon="7.207518">
      <ele>2055</ele>
      <time>2026-05-29T22:10:06.000Z</time>
    </trkpt>
    <trkpt lat="44.041644" lon="7.207503">
      <ele>2057</ele>
      <time>2026-05-29T22:11:12.000Z</time>
    </trkpt>
    <trkpt lat="44.041066" lon="7.207239">
      <ele>2055</ele>
      <time>2026-05-29T22:12:22.000Z</time>
    </trkpt>
    <trkpt lat="44.040729" lon="7.207205">
      <ele>2060</ele>
      <time>2026-05-29T22:13:52.000Z</time>
    </trkpt>
    <trkpt lat="44.04064" lon="7.207241">
      <ele>2060</ele>
      <time>2026-05-29T22:14:03.000Z</time>
    </trkpt>
    <trkpt lat="44.040507" lon="7.207402">
      <ele>2060</ele>
      <time>2026-05-29T22:14:23.000Z</time>
    </trkpt>
    <trkpt lat="44.040362" lon="7.207683">
      <ele>2059</ele>
      <time>2026-05-29T22:14:51.000Z</time>
    </trkpt>
    <trkpt lat="44.040148" lon="7.208256">
      <ele>2052</ele>
      <time>2026-05-29T22:15:44.000Z</time>
    </trkpt>
    <trkpt lat="44.039888" lon="7.208578">
      <ele>2050</ele>
      <time>2026-05-29T22:16:24.000Z</time>
    </trkpt>
    <trkpt lat="44.038218" lon="7.209303">
      <ele>2031</ele>
      <time>2026-05-29T22:19:44.000Z</time>
    </trkpt>
    <trkpt lat="44.037872" lon="7.209526">
      <ele>2032</ele>
      <time>2026-05-29T22:20:38.000Z</time>
    </trkpt>
    <trkpt lat="44.037637" lon="7.209897">
      <ele>2041</ele>
      <time>2026-05-29T22:22:51.000Z</time>
    </trkpt>
    <trkpt lat="44.037267" lon="7.209961">
      <ele>2039</ele>
      <time>2026-05-29T22:23:34.000Z</time>
    </trkpt>
    <trkpt lat="44.036917" lon="7.21011">
      <ele>2042</ele>
      <time>2026-05-29T22:24:47.000Z</time>
    </trkpt>
    <trkpt lat="44.036753" lon="7.210312">
      <ele>2044</ele>
      <time>2026-05-29T22:25:33.000Z</time>
    </trkpt>
    <trkpt lat="44.036443" lon="7.21093">
      <ele>2064</ele>
      <time>2026-05-29T22:30:01.000Z</time>
    </trkpt>
    <trkpt lat="44.036401" lon="7.210965">
      <ele>2064</ele>
      <time>2026-05-29T22:30:07.000Z</time>
    </trkpt>
    <trkpt lat="44.036026" lon="7.211008">
      <ele>2062</ele>
      <time>2026-05-29T22:30:50.000Z</time>
    </trkpt>
    <trkpt lat="44.035649" lon="7.21115">
      <ele>2063</ele>
      <time>2026-05-29T22:31:45.000Z</time>
    </trkpt>
    <trkpt lat="44.035134" lon="7.211494">
      <ele>2070</ele>
      <time>2026-05-29T22:34:02.000Z</time>
    </trkpt>
    <trkpt lat="44.034909" lon="7.211695">
      <ele>2077</ele>
      <time>2026-05-29T22:35:45.000Z</time>
    </trkpt>
    <trkpt lat="44.034723" lon="7.211796">
      <ele>2079</ele>
      <time>2026-05-29T22:36:28.000Z</time>
    </trkpt>
    <trkpt lat="44.034668" lon="7.211911">
      <ele>2080</ele>
      <time>2026-05-29T22:36:50.000Z</time>
    </trkpt>
    <trkpt lat="44.03455" lon="7.212001">
      <ele>2082</ele>
      <time>2026-05-29T22:37:26.000Z</time>
    </trkpt>
    <trkpt lat="44.034396" lon="7.212046">
      <ele>2085</ele>
      <time>2026-05-29T22:38:15.000Z</time>
    </trkpt>
    <trkpt lat="44.034224" lon="7.212162">
      <ele>2092</ele>
      <time>2026-05-29T22:39:49.000Z</time>
    </trkpt>
    <trkpt lat="44.03414" lon="7.21233">
      <ele>2093</ele>
      <time>2026-05-29T22:40:16.000Z</time>
    </trkpt>
    <trkpt lat="44.033994" lon="7.212458">
      <ele>2093</ele>
      <time>2026-05-29T22:40:36.000Z</time>
    </trkpt>
    <trkpt lat="44.033693" lon="7.212562">
      <ele>2095</ele>
      <time>2026-05-29T22:41:32.000Z</time>
    </trkpt>
    <trkpt lat="44.033994" lon="7.212458">
      <ele>2093</ele>
      <time>2026-05-29T22:42:08.000Z</time>
    </trkpt>
    <trkpt lat="44.03414" lon="7.21233">
      <ele>2093</ele>
      <time>2026-05-29T22:42:28.000Z</time>
    </trkpt>
    <trkpt lat="44.034224" lon="7.212162">
      <ele>2092</ele>
      <time>2026-05-29T22:42:45.000Z</time>
    </trkpt>
    <trkpt lat="44.034396" lon="7.212046">
      <ele>2085</ele>
      <time>2026-05-29T22:43:07.000Z</time>
    </trkpt>
    <trkpt lat="44.03455" lon="7.212001">
      <ele>2082</ele>
      <time>2026-05-29T22:43:25.000Z</time>
    </trkpt>
    <trkpt lat="44.034668" lon="7.211911">
      <ele>2080</ele>
      <time>2026-05-29T22:43:40.000Z</time>
    </trkpt>
    <trkpt lat="44.034723" lon="7.211796">
      <ele>2079</ele>
      <time>2026-05-29T22:43:51.000Z</time>
    </trkpt>
    <trkpt lat="44.034909" lon="7.211695">
      <ele>2077</ele>
      <time>2026-05-29T22:44:14.000Z</time>
    </trkpt>
    <trkpt lat="44.035134" lon="7.211494">
      <ele>2070</ele>
      <time>2026-05-29T22:44:45.000Z</time>
    </trkpt>
    <trkpt lat="44.035649" lon="7.21115">
      <ele>2063</ele>
      <time>2026-05-29T22:45:50.000Z</time>
    </trkpt>
    <trkpt lat="44.036026" lon="7.211008">
      <ele>2062</ele>
      <time>2026-05-29T22:46:35.000Z</time>
    </trkpt>
    <trkpt lat="44.036401" lon="7.210965">
      <ele>2064</ele>
      <time>2026-05-29T22:47:39.000Z</time>
    </trkpt>
    <trkpt lat="44.036443" lon="7.21093">
      <ele>2064</ele>
      <time>2026-05-29T22:47:45.000Z</time>
    </trkpt>
    <trkpt lat="44.036753" lon="7.210312">
      <ele>2044</ele>
      <time>2026-05-29T22:48:47.000Z</time>
    </trkpt>
    <trkpt lat="44.036917" lon="7.21011">
      <ele>2042</ele>
      <time>2026-05-29T22:49:12.000Z</time>
    </trkpt>
    <trkpt lat="44.037267" lon="7.209961">
      <ele>2039</ele>
      <time>2026-05-29T22:49:54.000Z</time>
    </trkpt>
    <trkpt lat="44.037637" lon="7.209897">
      <ele>2041</ele>
      <time>2026-05-29T22:50:57.000Z</time>
    </trkpt>
    <trkpt lat="44.03817" lon="7.209816">
      <ele>2051</ele>
      <time>2026-05-29T22:53:41.000Z</time>
    </trkpt>
    <trkpt lat="44.038725" lon="7.209616">
      <ele>2061</ele>
      <time>2026-05-29T22:56:30.000Z</time>
    </trkpt>
    <trkpt lat="44.039032" lon="7.209615">
      <ele>2058</ele>
      <time>2026-05-29T22:57:05.000Z</time>
    </trkpt>
    <trkpt lat="44.039261" lon="7.20936">
      <ele>2052</ele>
      <time>2026-05-29T22:57:39.000Z</time>
    </trkpt>
    <trkpt lat="44.040156" lon="7.208613">
      <ele>2049</ele>
      <time>2026-05-29T22:59:39.000Z</time>
    </trkpt>
    <trkpt lat="44.04052" lon="7.208045">
      <ele>2066</ele>
      <time>2026-05-29T23:03:36.000Z</time>
    </trkpt>
    <trkpt lat="44.040831" lon="7.207643">
      <ele>2073</ele>
      <time>2026-05-29T23:05:37.000Z</time>
    </trkpt>
    <trkpt lat="44.041014" lon="7.207501">
      <ele>2070</ele>
      <time>2026-05-29T23:06:01.000Z</time>
    </trkpt>
    <trkpt lat="44.041266" lon="7.207489">
      <ele>2064</ele>
      <time>2026-05-29T23:06:30.000Z</time>
    </trkpt>
    <trkpt lat="44.041498" lon="7.20754">
      <ele>2060</ele>
      <time>2026-05-29T23:06:57.000Z</time>
    </trkpt>
    <trkpt lat="44.042486" lon="7.208075">
      <ele>2073</ele>
      <time>2026-05-29T23:11:12.000Z</time>
    </trkpt>
    <trkpt lat="44.042616" lon="7.208099">
      <ele>2072</ele>
      <time>2026-05-29T23:11:27.000Z</time>
    </trkpt>
    <trkpt lat="44.044275" lon="7.207621">
      <ele>2067</ele>
      <time>2026-05-29T23:14:41.000Z</time>
    </trkpt>
    <trkpt lat="44.044419" lon="7.20761">
      <ele>2070</ele>
      <time>2026-05-29T23:15:28.000Z</time>
    </trkpt>
    <trkpt lat="44.044833" lon="7.207725">
      <ele>2081</ele>
      <time>2026-05-29T23:18:09.000Z</time>
    </trkpt>
    <trkpt lat="44.045007" lon="7.20769">
      <ele>2082</ele>
      <time>2026-05-29T23:18:39.000Z</time>
    </trkpt>
    <trkpt lat="44.045514" lon="7.207514">
      <ele>2084</ele>
      <time>2026-05-29T23:19:59.000Z</time>
    </trkpt>
    <trkpt lat="44.046015" lon="7.207238">
      <ele>2081</ele>
      <time>2026-05-29T23:21:01.000Z</time>
    </trkpt>
    <trkpt lat="44.046473" lon="7.207065">
      <ele>2084</ele>
      <time>2026-05-29T23:22:26.000Z</time>
    </trkpt>
    <trkpt lat="44.046778" lon="7.207023">
      <ele>2082</ele>
      <time>2026-05-29T23:23:01.000Z</time>
    </trkpt>
    <trkpt lat="44.046685" lon="7.206681">
      <ele>2077</ele>
      <time>2026-05-29T23:23:31.000Z</time>
    </trkpt>
    <trkpt lat="44.046779" lon="7.206347">
      <ele>2069</ele>
      <time>2026-05-29T23:24:01.000Z</time>
    </trkpt>
    <trkpt lat="44.046699" lon="7.206276">
      <ele>2068</ele>
      <time>2026-05-29T23:24:12.000Z</time>
    </trkpt>
    <trkpt lat="44.046789" lon="7.205618">
      <ele>2054</ele>
      <time>2026-05-29T23:25:07.000Z</time>
    </trkpt>
    <trkpt lat="44.046789" lon="7.205559">
      <ele>2053</ele>
      <time>2026-05-29T23:25:12.000Z</time>
    </trkpt>
    <trkpt lat="44.046741" lon="7.205491">
      <ele>2050</ele>
      <time>2026-05-29T23:25:20.000Z</time>
    </trkpt>
    <trkpt lat="44.046736" lon="7.205223">
      <ele>2044</ele>
      <time>2026-05-29T23:25:42.000Z</time>
    </trkpt>
    <trkpt lat="44.0467" lon="7.205202">
      <ele>2042</ele>
      <time>2026-05-29T23:25:46.000Z</time>
    </trkpt>
    <trkpt lat="44.046742" lon="7.205092">
      <ele>2040</ele>
      <time>2026-05-29T23:25:56.000Z</time>
    </trkpt>
    <trkpt lat="44.046639" lon="7.204898">
      <ele>2028</ele>
      <time>2026-05-29T23:26:16.000Z</time>
    </trkpt>
    <trkpt lat="44.046595" lon="7.204605">
      <ele>2017</ele>
      <time>2026-05-29T23:26:41.000Z</time>
    </trkpt>
    <trkpt lat="44.046483" lon="7.204178">
      <ele>1999</ele>
      <time>2026-05-29T23:27:18.000Z</time>
    </trkpt>
    <trkpt lat="44.046466" lon="7.20396">
      <ele>1991</ele>
      <time>2026-05-29T23:27:36.000Z</time>
    </trkpt>
    <trkpt lat="44.046474" lon="7.203819">
      <ele>1985</ele>
      <time>2026-05-29T23:27:48.000Z</time>
    </trkpt>
    <trkpt lat="44.04659" lon="7.203583">
      <ele>1976</ele>
      <time>2026-05-29T23:28:12.000Z</time>
    </trkpt>
    <trkpt lat="44.046482" lon="7.203391">
      <ele>1968</ele>
      <time>2026-05-29T23:28:32.000Z</time>
    </trkpt>
    <trkpt lat="44.046561" lon="7.203189">
      <ele>1962</ele>
      <time>2026-05-29T23:28:51.000Z</time>
    </trkpt>
    <trkpt lat="44.046587" lon="7.203034">
      <ele>1955</ele>
      <time>2026-05-29T23:29:04.000Z</time>
    </trkpt>
    <trkpt lat="44.046551" lon="7.202956">
      <ele>1953</ele>
      <time>2026-05-29T23:29:12.000Z</time>
    </trkpt>
    <trkpt lat="44.046707" lon="7.202765">
      <ele>1945</ele>
      <time>2026-05-29T23:29:36.000Z</time>
    </trkpt>
    <trkpt lat="44.046638" lon="7.202644">
      <ele>1941</ele>
      <time>2026-05-29T23:29:49.000Z</time>
    </trkpt>
    <trkpt lat="44.046451" lon="7.202567">
      <ele>1936</ele>
      <time>2026-05-29T23:30:11.000Z</time>
    </trkpt>
    <trkpt lat="44.046431" lon="7.202516">
      <ele>1933</ele>
      <time>2026-05-29T23:30:16.000Z</time>
    </trkpt>
    <trkpt lat="44.046718" lon="7.202259">
      <ele>1924</ele>
      <time>2026-05-29T23:30:55.000Z</time>
    </trkpt>
    <trkpt lat="44.046724" lon="7.202214">
      <ele>1922</ele>
      <time>2026-05-29T23:30:59.000Z</time>
    </trkpt>
    <trkpt lat="44.046896" lon="7.202148">
      <ele>1917</ele>
      <time>2026-05-29T23:31:19.000Z</time>
    </trkpt>
    <trkpt lat="44.046906" lon="7.202065">
      <ele>1913</ele>
      <time>2026-05-29T23:31:26.000Z</time>
    </trkpt>
    <trkpt lat="44.046946" lon="7.202016">
      <ele>1910</ele>
      <time>2026-05-29T23:31:32.000Z</time>
    </trkpt>
    <trkpt lat="44.046913" lon="7.201888">
      <ele>1908</ele>
      <time>2026-05-29T23:31:43.000Z</time>
    </trkpt>
    <trkpt lat="44.046958" lon="7.201731">
      <ele>1905</ele>
      <time>2026-05-29T23:31:57.000Z</time>
    </trkpt>
    <trkpt lat="44.047149" lon="7.20148">
      <ele>1901</ele>
      <time>2026-05-29T23:32:27.000Z</time>
    </trkpt>
    <trkpt lat="44.047219" lon="7.20146">
      <ele>1898</ele>
      <time>2026-05-29T23:32:35.000Z</time>
    </trkpt>
    <trkpt lat="44.047269" lon="7.201981">
      <ele>1893</ele>
      <time>2026-05-29T23:33:18.000Z</time>
    </trkpt>
    <trkpt lat="44.047368" lon="7.202156">
      <ele>1890</ele>
      <time>2026-05-29T23:33:36.000Z</time>
    </trkpt>
    <trkpt lat="44.047411" lon="7.202083">
      <ele>1887</ele>
      <time>2026-05-29T23:33:44.000Z</time>
    </trkpt>
    <trkpt lat="44.047398" lon="7.20197">
      <ele>1886</ele>
      <time>2026-05-29T23:33:53.000Z</time>
    </trkpt>
    <trkpt lat="44.047527" lon="7.201738">
      <ele>1875</ele>
      <time>2026-05-29T23:34:17.000Z</time>
    </trkpt>
    <trkpt lat="44.047603" lon="7.201962">
      <ele>1869</ele>
      <time>2026-05-29T23:34:37.000Z</time>
    </trkpt>
    <trkpt lat="44.047678" lon="7.202002">
      <ele>1865</ele>
      <time>2026-05-29T23:34:46.000Z</time>
    </trkpt>
    <trkpt lat="44.047713" lon="7.201766">
      <ele>1859</ele>
      <time>2026-05-29T23:35:06.000Z</time>
    </trkpt>
    <trkpt lat="44.047782" lon="7.201771">
      <ele>1854</ele>
      <time>2026-05-29T23:35:14.000Z</time>
    </trkpt>
    <trkpt lat="44.047807" lon="7.201957">
      <ele>1855</ele>
      <time>2026-05-29T23:35:40.000Z</time>
    </trkpt>
    <trkpt lat="44.048206" lon="7.202258">
      <ele>1836</ele>
      <time>2026-05-29T23:36:32.000Z</time>
    </trkpt>
    <trkpt lat="44.04836" lon="7.20251">
      <ele>1834</ele>
      <time>2026-05-29T23:36:59.000Z</time>
    </trkpt>
    <trkpt lat="44.048702" lon="7.203409">
      <ele>1831</ele>
      <time>2026-05-29T23:38:23.000Z</time>
    </trkpt>
    <trkpt lat="44.049878" lon="7.205621">
      <ele>1797</ele>
      <time>2026-05-29T23:42:09.000Z</time>
    </trkpt>
    <trkpt lat="44.050364" lon="7.206147">
      <ele>1796</ele>
      <time>2026-05-29T23:43:19.000Z</time>
    </trkpt>
    <trkpt lat="44.050865" lon="7.206519">
      <ele>1788</ele>
      <time>2026-05-29T23:44:24.000Z</time>
    </trkpt>
    <trkpt lat="44.051051" lon="7.20671">
      <ele>1786</ele>
      <time>2026-05-29T23:44:50.000Z</time>
    </trkpt>
    <trkpt lat="44.051477" lon="7.20734">
      <ele>1775</ele>
      <time>2026-05-29T23:46:01.000Z</time>
    </trkpt>
    <trkpt lat="44.051612" lon="7.20766">
      <ele>1765</ele>
      <time>2026-05-29T23:46:32.000Z</time>
    </trkpt>
    <trkpt lat="44.051638" lon="7.207965">
      <ele>1760</ele>
      <time>2026-05-29T23:46:57.000Z</time>
    </trkpt>
    <trkpt lat="44.05159" lon="7.208234">
      <ele>1756</ele>
      <time>2026-05-29T23:47:20.000Z</time>
    </trkpt>
    <trkpt lat="44.051472" lon="7.208432">
      <ele>1760</ele>
      <time>2026-05-29T23:48:22.000Z</time>
    </trkpt>
    <trkpt lat="44.051319" lon="7.208807">
      <ele>1763</ele>
      <time>2026-05-29T23:49:28.000Z</time>
    </trkpt>
    <trkpt lat="44.05129" lon="7.209089">
      <ele>1761</ele>
      <time>2026-05-29T23:49:51.000Z</time>
    </trkpt>
    <trkpt lat="44.051202" lon="7.209266">
      <ele>1764</ele>
      <time>2026-05-29T23:50:40.000Z</time>
    </trkpt>
    <trkpt lat="44.051179" lon="7.2094">
      <ele>1764</ele>
      <time>2026-05-29T23:50:51.000Z</time>
    </trkpt>
    <trkpt lat="44.051203" lon="7.209626">
      <ele>1761</ele>
      <time>2026-05-29T23:51:10.000Z</time>
    </trkpt>
    <trkpt lat="44.051182" lon="7.210052">
      <ele>1754</ele>
      <time>2026-05-29T23:51:45.000Z</time>
    </trkpt>
    <trkpt lat="44.051083" lon="7.210379">
      <ele>1750</ele>
      <time>2026-05-29T23:52:14.000Z</time>
    </trkpt>
    <trkpt lat="44.051184" lon="7.210743">
      <ele>1742</ele>
      <time>2026-05-29T23:52:46.000Z</time>
    </trkpt>
    <trkpt lat="44.051188" lon="7.210847">
      <ele>1740</ele>
      <time>2026-05-29T23:52:55.000Z</time>
    </trkpt>
    <trkpt lat="44.0511" lon="7.211027">
      <ele>1737</ele>
      <time>2026-05-29T23:53:13.000Z</time>
    </trkpt>
    <trkpt lat="44.051444" lon="7.211007">
      <ele>1734</ele>
      <time>2026-05-29T23:53:52.000Z</time>
    </trkpt>
    <trkpt lat="44.051442" lon="7.211093">
      <ele>1733</ele>
      <time>2026-05-29T23:53:59.000Z</time>
    </trkpt>
    <trkpt lat="44.051371" lon="7.211292">
      <ele>1731</ele>
      <time>2026-05-29T23:54:17.000Z</time>
    </trkpt>
    <trkpt lat="44.051677" lon="7.211389">
      <ele>1721</ele>
      <time>2026-05-29T23:54:53.000Z</time>
    </trkpt>
    <trkpt lat="44.051864" lon="7.211602">
      <ele>1714</ele>
      <time>2026-05-29T23:55:21.000Z</time>
    </trkpt>
    <trkpt lat="44.052113" lon="7.211813">
      <ele>1708</ele>
      <time>2026-05-29T23:55:54.000Z</time>
    </trkpt>
    <trkpt lat="44.05225" lon="7.212032">
      <ele>1706</ele>
      <time>2026-05-29T23:56:18.000Z</time>
    </trkpt>
    <trkpt lat="44.052493" lon="7.212307">
      <ele>1704</ele>
      <time>2026-05-29T23:56:54.000Z</time>
    </trkpt>
    <trkpt lat="44.052725" lon="7.212713">
      <ele>1705</ele>
      <time>2026-05-29T23:57:47.000Z</time>
    </trkpt>
    <trkpt lat="44.05282" lon="7.21279">
      <ele>1707</ele>
      <time>2026-05-29T23:58:20.000Z</time>
    </trkpt>
    <trkpt lat="44.05293" lon="7.21309">
      <ele>1709</ele>
      <time>2026-05-29T23:59:08.000Z</time>
    </trkpt>
    <trkpt lat="44.053076" lon="7.214031">
      <ele>1707</ele>
      <time>2026-05-30T00:00:27.000Z</time>
    </trkpt>
    <trkpt lat="44.053151" lon="7.214269">
      <ele>1709</ele>
      <time>2026-05-30T00:01:09.000Z</time>
    </trkpt>
    <trkpt lat="44.053121" lon="7.214615">
      <ele>1704</ele>
      <time>2026-05-30T00:01:38.000Z</time>
    </trkpt>
    <trkpt lat="44.053122" lon="7.2148">
      <ele>1703</ele>
      <time>2026-05-30T00:01:53.000Z</time>
    </trkpt>
    <trkpt lat="44.053189" lon="7.215104">
      <ele>1704</ele>
      <time>2026-05-30T00:02:29.000Z</time>
    </trkpt>
    <trkpt lat="44.053269" lon="7.215306">
      <ele>1706</ele>
      <time>2026-05-30T00:03:09.000Z</time>
    </trkpt>
    <trkpt lat="44.053287" lon="7.21553">
      <ele>1705</ele>
      <time>2026-05-30T00:03:28.000Z</time>
    </trkpt>
    <trkpt lat="44.053531" lon="7.216602">
      <ele>1705</ele>
      <time>2026-05-30T00:05:01.000Z</time>
    </trkpt>
    <trkpt lat="44.054287" lon="7.216671">
      <ele>1706</ele>
      <time>2026-05-30T00:06:38.000Z</time>
    </trkpt>
    <trkpt lat="44.054756" lon="7.216799">
      <ele>1706</ele>
      <time>2026-05-30T00:07:33.000Z</time>
    </trkpt>
    <trkpt lat="44.054875" lon="7.216869">
      <ele>1706</ele>
      <time>2026-05-30T00:07:48.000Z</time>
    </trkpt>
    <trkpt lat="44.05498" lon="7.217038">
      <ele>1700</ele>
      <time>2026-05-30T00:08:06.000Z</time>
    </trkpt>
    <trkpt lat="44.05513" lon="7.217148">
      <ele>1702</ele>
      <time>2026-05-30T00:08:46.000Z</time>
    </trkpt>
    <trkpt lat="44.05569" lon="7.217344">
      <ele>1694</ele>
      <time>2026-05-30T00:09:52.000Z</time>
    </trkpt>
    <trkpt lat="44.055765" lon="7.217803">
      <ele>1688</ele>
      <time>2026-05-30T00:10:31.000Z</time>
    </trkpt>
    <trkpt lat="44.055898" lon="7.218103">
      <ele>1690</ele>
      <time>2026-05-30T00:11:21.000Z</time>
    </trkpt>
    <trkpt lat="44.056095" lon="7.218303">
      <ele>1690</ele>
      <time>2026-05-30T00:11:49.000Z</time>
    </trkpt>
    <trkpt lat="44.056255" lon="7.218348">
      <ele>1693</ele>
      <time>2026-05-30T00:12:39.000Z</time>
    </trkpt>
    <trkpt lat="44.056396" lon="7.218461">
      <ele>1694</ele>
      <time>2026-05-30T00:13:08.000Z</time>
    </trkpt>
    <trkpt lat="44.056432" lon="7.218635">
      <ele>1692</ele>
      <time>2026-05-30T00:13:23.000Z</time>
    </trkpt>
    <trkpt lat="44.056408" lon="7.218787">
      <ele>1690</ele>
      <time>2026-05-30T00:13:36.000Z</time>
    </trkpt>
    <trkpt lat="44.056442" lon="7.218908">
      <ele>1688</ele>
      <time>2026-05-30T00:13:47.000Z</time>
    </trkpt>
    <trkpt lat="44.056428" lon="7.218999">
      <ele>1686</ele>
      <time>2026-05-30T00:13:55.000Z</time>
    </trkpt>
    <trkpt lat="44.056635" lon="7.219285">
      <ele>1685</ele>
      <time>2026-05-30T00:14:28.000Z</time>
    </trkpt>
    <trkpt lat="44.056652" lon="7.219445">
      <ele>1685</ele>
      <time>2026-05-30T00:14:41.000Z</time>
    </trkpt>
    <trkpt lat="44.056596" lon="7.219702">
      <ele>1683</ele>
      <time>2026-05-30T00:15:03.000Z</time>
    </trkpt>
    <trkpt lat="44.056168" lon="7.220539">
      <ele>1676</ele>
      <time>2026-05-30T00:16:28.000Z</time>
    </trkpt>
    <trkpt lat="44.056144" lon="7.220682">
      <ele>1677</ele>
      <time>2026-05-30T00:16:50.000Z</time>
    </trkpt>
    <trkpt lat="44.056015" lon="7.221015">
      <ele>1674</ele>
      <time>2026-05-30T00:17:21.000Z</time>
    </trkpt>
    <trkpt lat="44.055976" lon="7.221304">
      <ele>1676</ele>
      <time>2026-05-30T00:18:06.000Z</time>
    </trkpt>
    <trkpt lat="44.055893" lon="7.221441">
      <ele>1671</ele>
      <time>2026-05-30T00:18:21.000Z</time>
    </trkpt>
    <trkpt lat="44.055764" lon="7.221946">
      <ele>1670</ele>
      <time>2026-05-30T00:19:05.000Z</time>
    </trkpt>
    <trkpt lat="44.055639" lon="7.222068">
      <ele>1666</ele>
      <time>2026-05-30T00:19:22.000Z</time>
    </trkpt>
    <trkpt lat="44.055377" lon="7.222612">
      <ele>1662</ele>
      <time>2026-05-30T00:20:16.000Z</time>
    </trkpt>
    <trkpt lat="44.055245" lon="7.223029">
      <ele>1659</ele>
      <time>2026-05-30T00:20:53.000Z</time>
    </trkpt>
    <trkpt lat="44.054792" lon="7.224001">
      <ele>1645</ele>
      <time>2026-05-30T00:22:28.000Z</time>
    </trkpt>
    <trkpt lat="44.054684" lon="7.224291">
      <ele>1643</ele>
      <time>2026-05-30T00:22:55.000Z</time>
    </trkpt>
    <trkpt lat="44.054637" lon="7.224705">
      <ele>1637</ele>
      <time>2026-05-30T00:23:29.000Z</time>
    </trkpt>
    <trkpt lat="44.054686" lon="7.224788">
      <ele>1636</ele>
      <time>2026-05-30T00:23:38.000Z</time>
    </trkpt>
    <trkpt lat="44.054769" lon="7.224796">
      <ele>1636</ele>
      <time>2026-05-30T00:23:48.000Z</time>
    </trkpt>
    <trkpt lat="44.05513" lon="7.224627">
      <ele>1635</ele>
      <time>2026-05-30T00:24:32.000Z</time>
    </trkpt>
    <trkpt lat="44.055236" lon="7.224624">
      <ele>1633</ele>
      <time>2026-05-30T00:24:44.000Z</time>
    </trkpt>
    <trkpt lat="44.055468" lon="7.224748">
      <ele>1629</ele>
      <time>2026-05-30T00:25:12.000Z</time>
    </trkpt>
    <trkpt lat="44.055638" lon="7.224888">
      <ele>1623</ele>
      <time>2026-05-30T00:25:35.000Z</time>
    </trkpt>
    <trkpt lat="44.055997" lon="7.225442">
      <ele>1615</ele>
      <time>2026-05-30T00:26:36.000Z</time>
    </trkpt>
    <trkpt lat="44.056207" lon="7.225847">
      <ele>1612</ele>
      <time>2026-05-30T00:27:17.000Z</time>
    </trkpt>
    <trkpt lat="44.056219" lon="7.226482">
      <ele>1597</ele>
      <time>2026-05-30T00:28:09.000Z</time>
    </trkpt>
    <trkpt lat="44.056565" lon="7.226505">
      <ele>1605</ele>
      <time>2026-05-30T00:30:11.000Z</time>
    </trkpt>
    <trkpt lat="44.056762" lon="7.226625">
      <ele>1607</ele>
      <time>2026-05-30T00:30:56.000Z</time>
    </trkpt>
    <trkpt lat="44.057216" lon="7.226766">
      <ele>1613</ele>
      <time>2026-05-30T00:32:51.000Z</time>
    </trkpt>
    <trkpt lat="44.057714" lon="7.227077">
      <ele>1618</ele>
      <time>2026-05-30T00:34:45.000Z</time>
    </trkpt>
    <trkpt lat="44.058042" lon="7.227193">
      <ele>1619</ele>
      <time>2026-05-30T00:35:34.000Z</time>
    </trkpt>
    <trkpt lat="44.058786" lon="7.227679">
      <ele>1625</ele>
      <time>2026-05-30T00:38:10.000Z</time>
    </trkpt>
    <trkpt lat="44.059202" lon="7.22804">
      <ele>1627</ele>
      <time>2026-05-30T00:39:27.000Z</time>
    </trkpt>
    <trkpt lat="44.059633" lon="7.228245">
      <ele>1630</ele>
      <time>2026-05-30T00:40:50.000Z</time>
    </trkpt>
    <trkpt lat="44.060072" lon="7.228513">
      <ele>1636</ele>
      <time>2026-05-30T00:42:47.000Z</time>
    </trkpt>
    <trkpt lat="44.060203" lon="7.228524">
      <ele>1638</ele>
      <time>2026-05-30T00:43:23.000Z</time>
    </trkpt>
    <trkpt lat="44.060389" lon="7.228467">
      <ele>1641</ele>
      <time>2026-05-30T00:44:16.000Z</time>
    </trkpt>
    <trkpt lat="44.060493" lon="7.228638">
      <ele>1642</ele>
      <time>2026-05-30T00:44:45.000Z</time>
    </trkpt>
    <trkpt lat="44.060557" lon="7.228893">
      <ele>1643</ele>
      <time>2026-05-30T00:45:18.000Z</time>
    </trkpt>
    <trkpt lat="44.06076" lon="7.229175">
      <ele>1650</ele>
      <time>2026-05-30T00:47:03.000Z</time>
    </trkpt>
    <trkpt lat="44.060993" lon="7.229805">
      <ele>1661</ele>
      <time>2026-05-30T00:49:54.000Z</time>
    </trkpt>
    <trkpt lat="44.061039" lon="7.230284">
      <ele>1667</ele>
      <time>2026-05-30T00:51:35.000Z</time>
    </trkpt>
    <trkpt lat="44.061246" lon="7.230815">
      <ele>1678</ele>
      <time>2026-05-30T00:54:18.000Z</time>
    </trkpt>
    <trkpt lat="44.061349" lon="7.231188">
      <ele>1686</ele>
      <time>2026-05-30T00:56:13.000Z</time>
    </trkpt>
    <trkpt lat="44.061581" lon="7.231812">
      <ele>1701</ele>
      <time>2026-05-30T00:59:45.000Z</time>
    </trkpt>
    <trkpt lat="44.061817" lon="7.232239">
      <ele>1715</ele>
      <time>2026-05-30T01:02:53.000Z</time>
    </trkpt>
    <trkpt lat="44.06169" lon="7.232879">
      <ele>1726</ele>
      <time>2026-05-30T01:05:41.000Z</time>
    </trkpt>
    <trkpt lat="44.061858" lon="7.232696">
      <ele>1727</ele>
      <time>2026-05-30T01:06:16.000Z</time>
    </trkpt>
    <trkpt lat="44.061874" lon="7.232792">
      <ele>1731</ele>
      <time>2026-05-30T01:07:05.000Z</time>
    </trkpt>
    <trkpt lat="44.061986" lon="7.232705">
      <ele>1732</ele>
      <time>2026-05-30T01:07:30.000Z</time>
    </trkpt>
    <trkpt lat="44.06197" lon="7.232886">
      <ele>1738</ele>
      <time>2026-05-30T01:08:47.000Z</time>
    </trkpt>
    <trkpt lat="44.062079" lon="7.232807">
      <ele>1741</ele>
      <time>2026-05-30T01:09:32.000Z</time>
    </trkpt>
    <trkpt lat="44.062044" lon="7.232928">
      <ele>1742</ele>
      <time>2026-05-30T01:09:53.000Z</time>
    </trkpt>
    <trkpt lat="44.062115" lon="7.232937">
      <ele>1746</ele>
      <time>2026-05-30T01:10:42.000Z</time>
    </trkpt>
    <trkpt lat="44.062048" lon="7.233142">
      <ele>1748</ele>
      <time>2026-05-30T01:11:21.000Z</time>
    </trkpt>
    <trkpt lat="44.06205" lon="7.233382">
      <ele>1750</ele>
      <time>2026-05-30T01:12:01.000Z</time>
    </trkpt>
    <trkpt lat="44.062146" lon="7.233596">
      <ele>1757</ele>
      <time>2026-05-30T01:13:34.000Z</time>
    </trkpt>
    <trkpt lat="44.06214" lon="7.233671">
      <ele>1757</ele>
      <time>2026-05-30T01:13:40.000Z</time>
    </trkpt>
    <trkpt lat="44.062179" lon="7.233786">
      <ele>1762</ele>
      <time>2026-05-30T01:14:42.000Z</time>
    </trkpt>
    <trkpt lat="44.062289" lon="7.233786">
      <ele>1766</ele>
      <time>2026-05-30T01:15:36.000Z</time>
    </trkpt>
    <trkpt lat="44.062338" lon="7.233689">
      <ele>1767</ele>
      <time>2026-05-30T01:15:56.000Z</time>
    </trkpt>
    <trkpt lat="44.062508" lon="7.233691">
      <ele>1770</ele>
      <time>2026-05-30T01:16:46.000Z</time>
    </trkpt>
    <trkpt lat="44.062599" lon="7.233553">
      <ele>1770</ele>
      <time>2026-05-30T01:17:01.000Z</time>
    </trkpt>
    <trkpt lat="44.062836" lon="7.233551">
      <ele>1763</ele>
      <time>2026-05-30T01:17:28.000Z</time>
    </trkpt>
    <trkpt lat="44.063352" lon="7.233829">
      <ele>1744</ele>
      <time>2026-05-30T01:18:31.000Z</time>
    </trkpt>
    <trkpt lat="44.063568" lon="7.233849">
      <ele>1738</ele>
      <time>2026-05-30T01:18:56.000Z</time>
    </trkpt>
    <trkpt lat="44.06378" lon="7.233972">
      <ele>1732</ele>
      <time>2026-05-30T01:19:22.000Z</time>
    </trkpt>
    <trkpt lat="44.063986" lon="7.23416">
      <ele>1727</ele>
      <time>2026-05-30T01:19:50.000Z</time>
    </trkpt>
    <trkpt lat="44.064116" lon="7.234155">
      <ele>1725</ele>
      <time>2026-05-30T01:20:05.000Z</time>
    </trkpt>
    <trkpt lat="44.064187" lon="7.234278">
      <ele>1718</ele>
      <time>2026-05-30T01:20:18.000Z</time>
    </trkpt>
    <trkpt lat="44.064293" lon="7.234324">
      <ele>1717</ele>
      <time>2026-05-30T01:20:31.000Z</time>
    </trkpt>
    <trkpt lat="44.064396" lon="7.234288">
      <ele>1713</ele>
      <time>2026-05-30T01:20:43.000Z</time>
    </trkpt>
    <trkpt lat="44.064463" lon="7.234051">
      <ele>1710</ele>
      <time>2026-05-30T01:21:04.000Z</time>
    </trkpt>
    <trkpt lat="44.064557" lon="7.234433">
      <ele>1707</ele>
      <time>2026-05-30T01:21:37.000Z</time>
    </trkpt>
    <trkpt lat="44.065663" lon="7.235231">
      <ele>1675</ele>
      <time>2026-05-30T01:24:00.000Z</time>
    </trkpt>
    <trkpt lat="44.066368" lon="7.235914">
      <ele>1656</ele>
      <time>2026-05-30T01:25:38.000Z</time>
    </trkpt>
    <trkpt lat="44.066936" lon="7.236241">
      <ele>1651</ele>
      <time>2026-05-30T01:26:48.000Z</time>
    </trkpt>
    <trkpt lat="44.067411" lon="7.236455">
      <ele>1643</ele>
      <time>2026-05-30T01:27:45.000Z</time>
    </trkpt>
    <trkpt lat="44.067733" lon="7.236554">
      <ele>1636</ele>
      <time>2026-05-30T01:28:23.000Z</time>
    </trkpt>
    <trkpt lat="44.067948" lon="7.236513">
      <ele>1630</ele>
      <time>2026-05-30T01:28:48.000Z</time>
    </trkpt>
    <trkpt lat="44.068164" lon="7.236305">
      <ele>1620</ele>
      <time>2026-05-30T01:29:18.000Z</time>
    </trkpt>
    <trkpt lat="44.068205" lon="7.236129">
      <ele>1616</ele>
      <time>2026-05-30T01:29:33.000Z</time>
    </trkpt>
    <trkpt lat="44.068256" lon="7.236112">
      <ele>1614</ele>
      <time>2026-05-30T01:29:39.000Z</time>
    </trkpt>
    <trkpt lat="44.068276" lon="7.23588">
      <ele>1608</ele>
      <time>2026-05-30T01:29:58.000Z</time>
    </trkpt>
    <trkpt lat="44.068352" lon="7.23579">
      <ele>1604</ele>
      <time>2026-05-30T01:30:09.000Z</time>
    </trkpt>
    <trkpt lat="44.06831" lon="7.235606">
      <ele>1598</ele>
      <time>2026-05-30T01:30:25.000Z</time>
    </trkpt>
    <trkpt lat="44.06865" lon="7.235211">
      <ele>1577</ele>
      <time>2026-05-30T01:31:16.000Z</time>
    </trkpt>
    <trkpt lat="44.068653" lon="7.235053">
      <ele>1572</ele>
      <time>2026-05-30T01:31:29.000Z</time>
    </trkpt>
    <trkpt lat="44.068817" lon="7.234976">
      <ele>1564</ele>
      <time>2026-05-30T01:31:49.000Z</time>
    </trkpt>
    <trkpt lat="44.068866" lon="7.234877">
      <ele>1559</ele>
      <time>2026-05-30T01:31:59.000Z</time>
    </trkpt>
    <trkpt lat="44.068875" lon="7.234759">
      <ele>1556</ele>
      <time>2026-05-30T01:32:09.000Z</time>
    </trkpt>
    <trkpt lat="44.06899" lon="7.234756">
      <ele>1552</ele>
      <time>2026-05-30T01:32:22.000Z</time>
    </trkpt>
    <trkpt lat="44.069184" lon="7.234542">
      <ele>1541</ele>
      <time>2026-05-30T01:32:50.000Z</time>
    </trkpt>
    <trkpt lat="44.069434" lon="7.234147">
      <ele>1518</ele>
      <time>2026-05-30T01:33:33.000Z</time>
    </trkpt>
    <trkpt lat="44.069574" lon="7.233859">
      <ele>1506</ele>
      <time>2026-05-30T01:34:02.000Z</time>
    </trkpt>
    <trkpt lat="44.070059" lon="7.233596">
      <ele>1485</ele>
      <time>2026-05-30T01:35:02.000Z</time>
    </trkpt>
    <trkpt lat="44.070008" lon="7.233347">
      <ele>1479</ele>
      <time>2026-05-30T01:35:23.000Z</time>
    </trkpt>
    <trkpt lat="44.069688" lon="7.232857">
      <ele>1475</ele>
      <time>2026-05-30T01:36:17.000Z</time>
    </trkpt>
    <trkpt lat="44.069651" lon="7.232731">
      <ele>1471</ele>
      <time>2026-05-30T01:36:28.000Z</time>
    </trkpt>
    <trkpt lat="44.069743" lon="7.232411">
      <ele>1462</ele>
      <time>2026-05-30T01:36:56.000Z</time>
    </trkpt>
    <trkpt lat="44.070147" lon="7.231986">
      <ele>1441</ele>
      <time>2026-05-30T01:37:54.000Z</time>
    </trkpt>
    <trkpt lat="44.070483" lon="7.231512">
      <ele>1425</ele>
      <time>2026-05-30T01:38:49.000Z</time>
    </trkpt>
    <trkpt lat="44.070431" lon="7.23135">
      <ele>1426</ele>
      <time>2026-05-30T01:39:14.000Z</time>
    </trkpt>
    <trkpt lat="44.07038" lon="7.231386">
      <ele>1426</ele>
      <time>2026-05-30T01:39:21.000Z</time>
    </trkpt>
    <trkpt lat="44.070295" lon="7.231347">
      <ele>1426</ele>
      <time>2026-05-30T01:39:31.000Z</time>
    </trkpt>
    <trkpt lat="44.070032" lon="7.231119">
      <ele>1424</ele>
      <time>2026-05-30T01:40:06.000Z</time>
    </trkpt>
    <trkpt lat="44.069776" lon="7.230686">
      <ele>1423</ele>
      <time>2026-05-30T01:40:52.000Z</time>
    </trkpt>
    <trkpt lat="44.069137" lon="7.229879">
      <ele>1427</ele>
      <time>2026-05-30T01:43:12.000Z</time>
    </trkpt>
    <trkpt lat="44.069044" lon="7.229645">
      <ele>1427</ele>
      <time>2026-05-30T01:43:34.000Z</time>
    </trkpt>
    <trkpt lat="44.069024" lon="7.229207">
      <ele>1430</ele>
      <time>2026-05-30T01:44:41.000Z</time>
    </trkpt>
    <trkpt lat="44.069334" lon="7.228568">
      <ele>1433</ele>
      <time>2026-05-30T01:46:15.000Z</time>
    </trkpt>
    <trkpt lat="44.069454" lon="7.228462">
      <ele>1435</ele>
      <time>2026-05-30T01:46:52.000Z</time>
    </trkpt>
    <trkpt lat="44.069517" lon="7.228319">
      <ele>1436</ele>
      <time>2026-05-30T01:47:16.000Z</time>
    </trkpt>
    <trkpt lat="44.069346" lon="7.228144">
      <ele>1437</ele>
      <time>2026-05-30T01:47:51.000Z</time>
    </trkpt>
    <trkpt lat="44.06921" lon="7.228161">
      <ele>1437</ele>
      <time>2026-05-30T01:48:07.000Z</time>
    </trkpt>
    <trkpt lat="44.069157" lon="7.228208">
      <ele>1436</ele>
      <time>2026-05-30T01:48:14.000Z</time>
    </trkpt>
    <trkpt lat="44.069445" lon="7.227625">
      <ele>1443</ele>
      <time>2026-05-30T01:50:24.000Z</time>
    </trkpt>
    <trkpt lat="44.069639" lon="7.227069">
      <ele>1451</ele>
      <time>2026-05-30T01:52:37.000Z</time>
    </trkpt>
    <trkpt lat="44.069803" lon="7.226744">
      <ele>1454</ele>
      <time>2026-05-30T01:53:41.000Z</time>
    </trkpt>
    <trkpt lat="44.069909" lon="7.226268">
      <ele>1462</ele>
      <time>2026-05-30T01:55:44.000Z</time>
    </trkpt>
    <trkpt lat="44.06998" lon="7.226139">
      <ele>1463</ele>
      <time>2026-05-30T01:56:08.000Z</time>
    </trkpt>
    <trkpt lat="44.070126" lon="7.225648">
      <ele>1471</ele>
      <time>2026-05-30T01:58:14.000Z</time>
    </trkpt>
    <trkpt lat="44.070182" lon="7.225561">
      <ele>1471</ele>
      <time>2026-05-30T01:58:24.000Z</time>
    </trkpt>
    <trkpt lat="44.070422" lon="7.224925">
      <ele>1479</ele>
      <time>2026-05-30T02:00:45.000Z</time>
    </trkpt>
    <trkpt lat="44.070514" lon="7.224565">
      <ele>1483</ele>
      <time>2026-05-30T02:01:58.000Z</time>
    </trkpt>
    <trkpt lat="44.070635" lon="7.224367">
      <ele>1486</ele>
      <time>2026-05-30T02:02:50.000Z</time>
    </trkpt>
    <trkpt lat="44.070801" lon="7.223861">
      <ele>1493</ele>
      <time>2026-05-30T02:04:48.000Z</time>
    </trkpt>
    <trkpt lat="44.070888" lon="7.22382">
      <ele>1494</ele>
      <time>2026-05-30T02:05:09.000Z</time>
    </trkpt>
    <trkpt lat="44.071068" lon="7.222565">
      <ele>1498</ele>
      <time>2026-05-30T02:07:35.000Z</time>
    </trkpt>
    <trkpt lat="44.071058" lon="7.222453">
      <ele>1497</ele>
      <time>2026-05-30T02:07:44.000Z</time>
    </trkpt>
    <trkpt lat="44.070923" lon="7.222048">
      <ele>1499</ele>
      <time>2026-05-30T02:08:41.000Z</time>
    </trkpt>
    <trkpt lat="44.071129" lon="7.221918">
      <ele>1499</ele>
      <time>2026-05-30T02:09:07.000Z</time>
    </trkpt>
    <trkpt lat="44.07109" lon="7.221744">
      <ele>1499</ele>
      <time>2026-05-30T02:09:22.000Z</time>
    </trkpt>
    <trkpt lat="44.07125" lon="7.221661">
      <ele>1501</ele>
      <time>2026-05-30T02:10:02.000Z</time>
    </trkpt>
    <trkpt lat="44.071294" lon="7.221246">
      <ele>1501</ele>
      <time>2026-05-30T02:10:37.000Z</time>
    </trkpt>
    <trkpt lat="44.071347" lon="7.221108">
      <ele>1501</ele>
      <time>2026-05-30T02:10:50.000Z</time>
    </trkpt>
  </trkseg>
</trk></gpx>